createdAt,value
2022-11-17T00:00:07.299Z,98457.47
2022-11-17T00:02:37.987Z,98458.47
2022-11-17T00:05:06.730Z,98455.88
2022-11-17T00:07:38.134Z,98455.28
2022-11-17T00:10:08.413Z,98449.25
2022-11-17T00:12:55.828Z,98448.22
2022-11-17T00:15:25.420Z,98447.59
2022-11-17T00:21:17.416Z,98438.59
2022-11-17T00:23:49.167Z,98430.13
2022-11-17T00:26:18.407Z,98424.75
2022-11-17T00:28:48.193Z,98427.97
2022-11-17T00:31:34.407Z,98425.38
2022-11-17T00:34:09.284Z,98428.84
2022-11-17T00:36:39.209Z,98413.56
2022-11-17T00:39:08.705Z,98417.16
2022-11-17T00:41:38.659Z,98408.75
2022-11-17T00:44:07.654Z,98414.13
2022-11-17T00:46:37.737Z,98414.91
2022-11-17T00:49:08.631Z,98409.31
2022-11-17T00:51:39.212Z,98415.09
2022-11-17T00:54:08.295Z,98404.75
2022-11-17T00:56:36.360Z,98414.75
2022-11-17T00:59:05.562Z,98408.63
2022-11-17T01:01:34.615Z,98404.25
2022-11-17T01:04:04.628Z,98393.00
2022-11-17T01:06:37.044Z,98398.75
2022-11-17T01:09:08.913Z,98392.72
2022-11-17T01:11:38.296Z,98393.72
2022-11-17T01:14:06.872Z,98388.09
2022-11-17T01:16:35.281Z,98388.50
2022-11-17T01:19:04.068Z,98386.25
2022-11-17T01:21:33.187Z,98375.66
2022-11-17T01:24:03.843Z,98378.88
2022-11-17T01:26:33.556Z,98374.84
2022-11-17T01:29:02.384Z,98362.38
2022-11-17T01:31:32.185Z,98362.56
2022-11-17T01:34:01.052Z,98359.72
2022-11-17T01:36:30.671Z,98358.56
2022-11-17T01:38:59.032Z,98365.75
2022-11-17T01:41:29.794Z,98360.16
2022-11-17T01:43:59.468Z,98356.78
2022-11-17T01:46:34.299Z,98355.75
2022-11-17T01:49:05.865Z,98358.72
2022-11-17T01:51:36.999Z,98352.78
2022-11-17T01:54:06.485Z,98351.72
2022-11-17T01:56:40.405Z,98348.53
2022-11-17T01:59:11.771Z,98352.53
2022-11-17T02:01:55.966Z,98353.13
2022-11-17T02:04:26.325Z,98349.31
2022-11-17T02:06:58.256Z,98348.94
2022-11-17T02:09:27.762Z,98347.72
2022-11-17T02:12:00.573Z,98345.09
2022-11-17T02:14:30.132Z,98346.91
2022-11-17T02:17:07.033Z,98344.31
2022-11-17T02:19:40.089Z,98339.97
2022-11-17T02:22:22.423Z,98339.97
2022-11-17T02:25:07.191Z,98338.34
2022-11-17T02:28:02.600Z,98339.53
2022-11-17T02:30:33.591Z,98325.09
2022-11-17T02:33:05.166Z,98318.97
2022-11-17T02:35:38.584Z,98323.72
2022-11-17T02:38:13.398Z,98324.16
2022-11-17T02:40:44.684Z,98309.13
2022-11-17T02:43:33.326Z,98317.78
2022-11-17T02:46:04.874Z,98312.19
2022-11-17T02:48:35.149Z,98307.22
2022-11-17T02:51:05.009Z,98304.50
2022-11-17T02:53:34.740Z,98303.06
2022-11-17T02:56:04.650Z,98300.00
2022-11-17T02:58:35.505Z,98295.94
2022-11-17T03:01:12.419Z,98289.25
2022-11-17T03:03:47.854Z,98295.44
2022-11-17T03:06:21.968Z,98296.81
2022-11-17T03:08:54.698Z,98294.38
2022-11-17T03:11:25.955Z,98290.31
2022-11-17T03:13:58.717Z,98293.91
2022-11-17T03:16:29.152Z,98297.47
2022-11-17T03:19:07.994Z,98292.84
2022-11-17T03:21:38.967Z,98292.38
2022-11-17T03:27:15.626Z,98285.56
2022-11-17T03:29:49.822Z,98291.59
2022-11-17T03:32:20.094Z,98281.78
2022-11-17T03:34:52.117Z,98276.56
2022-11-17T03:37:21.844Z,98277.34
2022-11-17T03:39:53.274Z,98275.56
2022-11-17T03:42:25.622Z,98279.75
2022-11-17T03:45:05.508Z,98277.69
2022-11-17T03:47:55.248Z,98274.09
2022-11-17T03:50:27.491Z,98272.88
2022-11-17T03:52:57.016Z,98265.84
2022-11-17T03:55:29.696Z,98270.06
2022-11-17T03:58:02.305Z,98261.44
2022-11-17T04:00:34.335Z,98267.25
2022-11-17T04:03:02.704Z,98258.63
2022-11-17T04:05:31.679Z,98258.84
2022-11-17T04:08:00.621Z,98262.47
2022-11-17T04:10:29.837Z,98253.63
2022-11-17T04:13:15.941Z,98254.41
2022-11-17T04:16:00.025Z,98258.25
2022-11-17T04:18:28.512Z,98259.09
2022-11-17T04:20:58.366Z,98252.28
2022-11-17T04:23:27.477Z,98245.13
2022-11-17T04:26:14.594Z,98255.78
2022-11-17T04:28:44.930Z,98250.63
2022-11-17T04:31:17.680Z,98246.25
2022-11-17T04:33:47.704Z,98249.88
2022-11-17T04:36:17.612Z,98243.88
2022-11-17T04:38:47.506Z,98247.06
2022-11-17T04:41:34.290Z,98242.41
2022-11-17T04:44:03.317Z,98245.25
2022-11-17T04:46:35.135Z,98241.22
2022-11-17T04:49:04.569Z,98246.44
2022-11-17T04:51:37.274Z,98247.63
2022-11-17T04:54:07.420Z,98236.59
2022-11-17T04:56:36.539Z,98243.41
2022-11-17T04:59:06.154Z,98244.19
2022-11-17T05:01:37.244Z,98250.34
2022-11-17T05:04:07.751Z,98247.50
2022-11-17T05:06:38.844Z,98241.50
2022-11-17T05:09:09.808Z,98248.91
2022-11-17T05:11:55.823Z,98251.16
2022-11-17T05:14:26.233Z,98249.69
2022-11-17T05:17:11.523Z,98247.09
2022-11-17T05:19:42.038Z,98246.66
2022-11-17T05:22:25.507Z,98244.41
2022-11-17T05:24:55.326Z,98254.00
2022-11-17T05:27:25.307Z,98248.13
2022-11-17T05:29:54.909Z,98242.69
2022-11-17T05:32:27.072Z,98245.53
2022-11-17T05:34:56.896Z,98253.50
2022-11-17T05:37:28.543Z,98248.66
2022-11-17T05:39:57.750Z,98245.63
2022-11-17T05:42:27.678Z,98247.34
2022-11-17T05:44:57.911Z,98247.72
2022-11-17T05:47:28.280Z,98235.03
2022-11-17T05:49:57.183Z,98241.41
2022-11-17T05:52:26.340Z,98241.84
2022-11-17T05:54:55.289Z,98248.00
2022-11-17T05:57:27.855Z,98243.56
2022-11-17T05:59:59.795Z,98234.72
2022-11-17T06:02:33.522Z,98239.09
2022-11-17T06:07:51.934Z,98235.03
2022-11-17T06:10:20.856Z,98235.81
2022-11-17T06:12:50.051Z,98237.75
2022-11-17T06:15:18.474Z,98238.34
2022-11-17T06:17:51.176Z,98236.09
2022-11-17T06:20:22.164Z,98237.25
2022-11-17T06:22:52.117Z,98228.63
2022-11-17T06:25:26.227Z,98233.63
2022-11-17T06:27:59.399Z,98227.38
2022-11-17T06:30:28.899Z,98239.19
2022-11-17T06:33:01.649Z,98238.19
2022-11-17T06:35:33.877Z,98234.56
2022-11-17T06:38:03.192Z,98230.16
2022-11-17T06:40:33.800Z,98235.47
2022-11-17T06:43:12.564Z,98230.25
2022-11-17T06:45:43.920Z,98232.88
2022-11-17T06:48:17.477Z,98226.44
2022-11-17T06:50:47.338Z,98224.16
2022-11-17T06:53:16.130Z,98231.91
2022-11-17T06:55:44.934Z,98225.56
2022-11-17T06:58:14.704Z,98225.47
2022-11-17T07:00:45.235Z,98236.84
2022-11-17T07:03:18.585Z,98224.13
2022-11-17T07:05:49.061Z,98228.13
2022-11-17T07:08:19.838Z,98232.53
2022-11-17T07:10:54.853Z,98230.50
2022-11-17T07:13:24.709Z,98236.06
2022-11-17T07:15:54.404Z,98232.78
2022-11-17T07:18:25.215Z,98238.13
2022-11-17T07:20:54.670Z,98236.09
2022-11-17T07:23:24.661Z,98228.94
2022-11-17T07:25:55.110Z,98237.25
2022-11-17T07:28:24.447Z,98236.44
2022-11-17T07:39:42.193Z,98237.25
2022-11-17T07:42:11.869Z,98242.47
2022-11-17T07:44:40.785Z,98241.47
2022-11-17T07:47:17.495Z,98245.00
2022-11-17T07:49:46.878Z,98246.69
2022-11-17T07:55:27.726Z,98244.25
2022-11-17T07:57:57.162Z,98246.28
2022-11-17T08:00:26.354Z,98245.03
2022-11-17T08:02:55.501Z,98248.78
2022-11-17T08:05:26.024Z,98250.56
2022-11-17T08:07:57.327Z,98251.34
2022-11-17T08:10:31.325Z,98239.50
2022-11-17T08:13:00.934Z,98243.94
2022-11-17T08:15:30.070Z,98237.81
2022-11-17T08:18:00.252Z,98235.88
2022-11-17T08:20:30.102Z,98241.00
2022-11-17T08:23:00.957Z,98232.50
2022-11-17T08:25:33.082Z,98237.50
2022-11-17T08:28:02.253Z,98236.13
2022-11-17T08:30:34.279Z,98228.06
2022-11-17T08:33:03.754Z,98229.16
2022-11-17T08:35:37.322Z,98238.91
2022-11-17T08:38:09.724Z,98231.53
2022-11-17T08:43:23.531Z,98231.84
2022-11-17T08:45:52.539Z,98234.56
2022-11-17T08:48:21.931Z,98232.44
2022-11-17T08:50:52.628Z,98231.81
2022-11-17T08:53:23.603Z,98232.03
2022-11-17T08:55:55.902Z,98232.50
2022-11-17T08:58:25.314Z,98228.53
2022-11-17T09:00:54.572Z,98226.03
2022-11-17T09:03:27.180Z,98224.34
2022-11-17T09:05:57.511Z,98228.50
2022-11-17T09:08:44.939Z,98221.31
2022-11-17T09:11:17.208Z,98217.50
2022-11-17T09:13:50.058Z,98227.88
2022-11-17T09:16:20.741Z,98227.16
2022-11-17T09:18:55.762Z,98216.59
2022-11-17T09:21:25.124Z,98218.34
2022-11-17T09:23:53.865Z,98218.03
2022-11-17T09:26:26.250Z,98213.50
2022-11-17T09:28:56.573Z,98215.03
2022-11-17T09:31:28.097Z,98204.91
2022-11-17T09:34:00.646Z,98205.47
2022-11-17T09:36:31.941Z,98206.47
2022-11-17T09:39:03.929Z,98207.25
2022-11-17T09:41:36.725Z,98198.44
2022-11-17T09:44:17.753Z,98201.56
2022-11-17T09:47:06.200Z,98205.97
2022-11-17T09:49:43.800Z,98207.97
2022-11-17T09:52:16.873Z,98204.50
2022-11-17T09:54:49.546Z,98208.66
2022-11-17T09:57:25.302Z,98201.28
2022-11-17T09:59:58.910Z,98207.06
2022-11-17T10:02:28.898Z,98204.56
2022-11-17T10:04:59.402Z,98198.75
2022-11-17T10:07:29.338Z,98202.06
2022-11-17T10:09:59.409Z,98202.72
2022-11-17T10:12:34.461Z,98202.63
2022-11-17T10:15:20.359Z,98209.31
2022-11-17T10:17:49.617Z,98202.38
2022-11-17T10:20:19.687Z,98206.84
2022-11-17T10:22:50.751Z,98204.31
2022-11-17T10:25:38.377Z,98204.19
2022-11-17T10:28:10.895Z,98210.53
2022-11-17T10:30:39.800Z,98204.75
2022-11-17T10:33:08.854Z,98201.41
2022-11-17T10:35:37.995Z,98205.84
2022-11-17T10:38:08.654Z,98204.69
2022-11-17T10:40:49.614Z,98203.09
2022-11-17T10:43:25.713Z,98207.78
2022-11-17T10:45:56.537Z,98204.25
2022-11-17T10:48:30.142Z,98197.00
2022-11-17T10:51:00.065Z,98198.84
2022-11-17T10:53:39.509Z,98207.31
2022-11-17T10:56:19.115Z,98201.06
2022-11-17T10:59:05.314Z,98198.84
2022-11-17T11:01:35.698Z,98204.50
2022-11-17T11:04:10.375Z,98198.94
2022-11-17T11:06:39.181Z,98201.34
2022-11-17T11:09:12.537Z,98200.09
2022-11-17T11:11:46.120Z,98205.06
2022-11-17T11:14:27.717Z,98210.38
2022-11-17T11:16:57.610Z,98196.75
2022-11-17T11:19:26.796Z,98197.78
2022-11-17T11:22:07.648Z,98202.56
2022-11-17T11:24:40.580Z,98210.22
2022-11-17T11:27:24.920Z,98205.69
2022-11-17T11:30:00.988Z,98209.38
2022-11-17T11:32:38.189Z,98207.34
2022-11-17T11:35:28.124Z,98210.75
2022-11-17T11:38:03.057Z,98205.13
2022-11-17T11:40:34.490Z,98205.69
2022-11-17T11:43:07.202Z,98208.44
2022-11-17T11:45:47.764Z,98207.44
2022-11-17T11:48:22.022Z,98206.97
2022-11-17T11:50:55.614Z,98207.66
2022-11-17T11:53:31.401Z,98202.31
2022-11-17T11:56:07.256Z,98208.31
2022-11-17T11:58:36.480Z,98202.22
2022-11-17T12:01:08.750Z,98205.84
2022-11-17T12:03:43.761Z,98206.50
2022-11-17T12:06:36.316Z,98205.69
2022-11-17T12:09:12.806Z,98204.50
2022-11-17T12:11:59.972Z,98198.78
2022-11-17T12:14:29.607Z,98205.69
2022-11-17T12:17:09.742Z,98199.28
2022-11-17T12:19:51.243Z,98206.50
2022-11-17T12:22:26.840Z,98204.09
2022-11-17T12:24:59.536Z,98197.28
2022-11-17T12:27:45.302Z,98205.34
2022-11-17T12:30:34.946Z,98196.94
2022-11-17T12:33:09.044Z,98211.06
2022-11-17T12:35:38.960Z,98209.91
2022-11-17T12:38:27.182Z,98205.03
2022-11-17T12:40:56.278Z,98201.19
2022-11-17T12:43:25.824Z,98209.66
2022-11-17T12:46:02.402Z,98208.94
2022-11-17T12:48:39.366Z,98207.56
2022-11-17T12:51:13.564Z,98201.47
2022-11-17T12:53:58.886Z,98199.19
2022-11-17T12:56:41.903Z,98203.50
2022-11-17T12:59:23.891Z,98210.34
2022-11-17T13:01:58.901Z,98208.38
2022-11-17T13:04:34.753Z,98210.00
2022-11-17T13:07:06.113Z,98213.63
2022-11-17T13:09:38.636Z,98217.09
2022-11-17T13:12:09.188Z,98220.78
2022-11-17T13:14:43.666Z,98225.94
2022-11-17T13:17:14.179Z,98217.53
2022-11-17T13:19:47.654Z,98229.78
2022-11-17T13:22:18.826Z,98225.50
2022-11-17T13:24:49.379Z,98224.13
2022-11-17T13:27:23.280Z,98215.50
2022-11-17T13:29:52.528Z,98221.56
2022-11-17T13:32:24.767Z,98222.81
2022-11-17T13:34:58.003Z,98230.56
2022-11-17T13:37:29.019Z,98220.59
2022-11-17T13:39:59.723Z,98225.56
2022-11-17T13:42:30.504Z,98229.19
2022-11-17T13:45:01.157Z,98231.78
2022-11-17T13:47:50.253Z,98234.19
2022-11-17T13:50:40.933Z,98227.78
2022-11-17T13:53:28.070Z,98233.41
2022-11-17T13:55:56.865Z,98228.66
2022-11-17T13:58:29.744Z,98232.88
2022-11-17T14:01:00.150Z,98233.50
2022-11-17T14:03:36.909Z,98226.53
2022-11-17T14:06:06.861Z,98229.31
2022-11-17T14:08:37.713Z,98234.72
2022-11-17T14:11:09.159Z,98240.94
2022-11-17T14:13:41.536Z,98238.38
2022-11-17T14:16:26.665Z,98233.97
2022-11-17T14:19:00.608Z,98232.59
2022-11-17T14:24:26.647Z,98218.63
2022-11-17T14:26:55.995Z,98227.22
2022-11-17T14:29:25.308Z,98225.00
2022-11-17T14:32:04.014Z,98216.44
2022-11-17T14:34:33.092Z,98226.22
2022-11-17T14:37:05.818Z,98231.41
2022-11-17T14:39:39.294Z,98222.63
2022-11-17T14:42:09.029Z,98233.16
2022-11-17T14:44:38.998Z,98239.53
2022-11-17T14:47:37.672Z,98224.38
2022-11-17T14:50:07.084Z,98238.75
2022-11-17T14:52:40.011Z,98229.53
2022-11-17T14:55:11.184Z,98227.75
2022-11-17T14:57:41.884Z,98238.91
2022-11-17T15:00:19.932Z,98227.31
2022-11-17T15:02:51.453Z,98235.69
2022-11-17T15:05:20.210Z,98228.88
2022-11-17T15:07:49.371Z,98223.69
2022-11-17T15:10:20.533Z,98222.03
2022-11-17T15:12:49.824Z,98217.44
2022-11-17T15:15:19.767Z,98223.63
2022-11-17T15:17:48.486Z,98222.63
2022-11-17T15:20:17.241Z,98236.81
2022-11-17T15:22:46.119Z,98230.97
2022-11-17T15:25:15.857Z,98224.59
2022-11-17T15:27:46.412Z,98227.91
2022-11-17T15:30:15.937Z,98225.91
2022-11-17T15:38:51.023Z,98222.69
2022-11-17T15:41:20.394Z,98216.53
2022-11-17T15:43:50.804Z,98225.69
2022-11-17T15:52:30.077Z,98219.81
2022-11-17T15:55:07.624Z,98214.13
2022-11-17T15:57:37.514Z,98212.72
2022-11-17T16:00:12.276Z,98216.53
2022-11-17T16:02:45.491Z,98215.97
2022-11-17T16:05:14.567Z,98211.59
2022-11-17T16:07:47.796Z,98219.38
2022-11-17T16:10:18.824Z,98199.66
2022-11-17T16:12:49.738Z,98232.16
2022-11-17T16:15:22.744Z,98220.19
2022-11-17T16:17:57.748Z,98225.59
2022-11-17T16:20:27.561Z,98215.00
2022-11-17T16:22:58.298Z,98213.22
2022-11-17T16:25:27.898Z,98216.81
2022-11-17T16:28:00.606Z,98208.81
2022-11-17T16:30:35.632Z,98214.81
2022-11-17T16:33:06.160Z,98212.63
2022-11-17T16:35:36.058Z,98208.81
2022-11-17T16:38:05.760Z,98206.84
2022-11-17T16:40:38.140Z,98206.03
2022-11-17T16:43:07.467Z,98202.44
2022-11-17T16:45:43.307Z,98202.63
2022-11-17T16:48:13.897Z,98200.63
2022-11-17T16:50:43.792Z,98202.41
2022-11-17T16:53:13.145Z,98204.22
2022-11-17T16:55:43.029Z,98202.22
2022-11-17T16:58:13.317Z,98195.03
2022-11-17T17:00:45.176Z,98192.22
2022-11-17T17:03:14.304Z,98194.44
2022-11-17T17:05:44.117Z,98197.22
2022-11-17T17:08:16.749Z,98189.25
2022-11-17T17:10:47.474Z,98195.44
2022-11-17T17:13:18.128Z,98190.44
2022-11-17T17:15:50.023Z,98191.03
2022-11-17T17:18:19.991Z,98203.59
2022-11-17T17:20:53.518Z,98192.84
2022-11-17T17:23:23.074Z,98197.44
2022-11-17T17:25:52.430Z,98193.00
2022-11-17T17:28:23.100Z,98191.84
2022-11-17T17:30:57.267Z,98186.28
2022-11-17T17:33:27.433Z,98191.25
2022-11-17T17:35:58.421Z,98185.03
2022-11-17T17:38:27.974Z,98190.41
2022-11-17T17:40:57.464Z,98187.03
2022-11-17T17:43:25.867Z,98193.00
2022-11-17T17:46:00.159Z,98189.25
2022-11-17T17:48:31.875Z,98186.84
2022-11-17T17:51:05.209Z,98179.06
2022-11-17T17:53:35.033Z,98184.25
2022-11-17T17:56:04.214Z,98176.09
2022-11-17T17:58:40.694Z,98163.13
2022-11-17T18:01:19.056Z,98186.06
2022-11-17T18:03:48.690Z,98185.09
2022-11-17T18:06:18.714Z,98183.69
2022-11-17T18:08:48.520Z,98183.47
2022-11-17T18:11:18.811Z,98191.66
2022-11-17T18:13:50.516Z,98185.09
2022-11-17T18:16:24.386Z,98166.94
2022-11-17T18:18:57.616Z,98182.47
2022-11-17T18:21:26.208Z,98172.91
2022-11-17T18:24:03.180Z,98167.72
2022-11-17T18:26:34.863Z,98175.91
2022-11-17T18:29:04.262Z,98178.06
2022-11-17T18:31:36.160Z,98176.91
2022-11-17T18:34:05.363Z,98170.50
2022-11-17T18:36:34.937Z,98176.91
2022-11-17T18:39:04.012Z,98182.84
2022-11-17T18:41:34.453Z,98172.69
2022-11-17T18:44:03.816Z,98174.09
2022-11-17T18:46:34.582Z,98176.31
2022-11-17T18:49:03.562Z,98174.94
2022-11-17T18:51:32.923Z,98174.72
2022-11-17T18:54:02.707Z,98181.91
2022-11-17T18:56:34.422Z,98176.91
2022-11-17T18:59:03.482Z,98179.28
2022-11-17T19:01:33.758Z,98175.72
2022-11-17T19:04:04.189Z,98166.31
2022-11-17T19:06:33.249Z,98173.31
2022-11-17T19:09:01.976Z,98169.91
2022-11-17T19:11:33.413Z,98172.09
2022-11-17T19:14:06.572Z,98167.09
2022-11-17T19:16:44.067Z,98163.31
2022-11-17T19:19:15.734Z,98158.50
2022-11-17T19:21:45.341Z,98161.72
2022-11-17T19:24:15.553Z,98157.09
2022-11-17T19:26:44.030Z,98146.75
2022-11-17T19:29:17.157Z,98158.22
2022-11-17T19:31:47.255Z,98154.44
2022-11-17T19:34:18.014Z,98162.06
2022-11-17T19:36:47.206Z,98157.66
2022-11-17T19:39:17.491Z,98155.03
2022-11-17T19:41:48.668Z,98162.81
2022-11-17T19:44:17.466Z,98146.88
2022-11-17T19:46:45.757Z,98146.47
2022-11-17T19:49:14.826Z,98144.06
2022-11-17T19:51:45.405Z,98146.69
2022-11-17T19:54:14.768Z,98153.66
2022-11-17T19:56:43.601Z,98146.50
2022-11-17T19:59:16.094Z,98150.47
2022-11-17T20:01:45.367Z,98138.91
2022-11-17T20:04:13.832Z,98143.50
2022-11-17T20:06:42.602Z,98128.72
2022-11-17T20:09:20.079Z,98143.84
2022-11-17T20:11:49.321Z,98133.88
2022-11-17T20:14:18.760Z,98150.00
2022-11-17T20:16:47.531Z,98141.66
2022-11-17T20:19:16.490Z,98135.28
2022-11-17T20:21:45.481Z,98144.25
2022-11-17T20:24:15.368Z,98128.50
2022-11-17T20:26:45.060Z,98131.31
2022-11-17T20:29:14.478Z,98136.28
2022-11-17T20:31:44.498Z,98128.94
2022-11-17T20:34:14.607Z,98124.75
2022-11-17T20:36:43.696Z,98129.72
2022-11-17T20:39:12.557Z,98123.53
2022-11-17T20:41:43.158Z,98120.53
2022-11-17T20:44:24.403Z,98113.78
2022-11-17T20:46:53.487Z,98135.31
2022-11-17T20:49:22.159Z,98124.94
2022-11-17T20:51:50.709Z,98110.22
2022-11-17T20:54:19.975Z,98114.59
2022-11-17T20:56:51.015Z,98128.13
2022-11-17T20:59:20.577Z,98110.81
2022-11-17T21:01:49.810Z,98110.59
2022-11-17T21:04:18.216Z,98101.47
2022-11-17T21:06:46.809Z,98107.63
2022-11-17T21:09:16.263Z,98101.00
2022-11-17T21:11:50.735Z,98109.78
2022-11-17T21:14:33.495Z,98102.44
2022-11-17T21:17:03.810Z,98103.84
2022-11-17T21:19:40.950Z,98105.63
2022-11-17T21:22:35.266Z,98101.06
2022-11-17T21:25:05.120Z,98104.22
2022-11-17T21:27:34.661Z,98099.41
2022-11-17T21:30:03.171Z,98105.63
2022-11-17T21:32:35.767Z,98108.97
2022-11-17T21:35:06.097Z,98111.97
2022-11-17T21:37:35.362Z,98096.28
2022-11-17T21:40:04.938Z,98104.66
2022-11-17T21:42:35.395Z,98094.88
2022-11-17T21:45:09.536Z,98099.47
2022-11-17T21:47:43.673Z,98096.69
2022-11-17T21:50:12.596Z,98091.28
2022-11-17T21:52:40.957Z,98081.91
2022-11-17T21:55:10.422Z,98091.88
2022-11-17T21:57:39.246Z,98084.69
2022-11-17T22:00:10.766Z,98089.25
2022-11-17T22:02:42.272Z,98085.09
2022-11-17T22:05:11.412Z,98075.53
2022-11-17T22:07:39.916Z,98073.13
2022-11-17T22:10:09.456Z,98081.91
2022-11-17T22:12:38.320Z,98082.72
2022-11-17T22:15:11.432Z,98083.47
2022-11-17T22:17:44.034Z,98074.69
2022-11-17T22:20:13.884Z,98083.28
2022-11-17T22:22:54.352Z,98069.53
2022-11-17T22:28:16.005Z,98083.50
2022-11-17T22:30:49.546Z,98077.31
2022-11-17T22:33:23.592Z,98075.56
2022-11-17T22:35:52.242Z,98086.69
2022-11-17T22:38:24.953Z,98086.28
2022-11-17T22:40:57.268Z,98088.28
2022-11-17T22:43:25.991Z,98083.13
2022-11-17T22:45:54.697Z,98086.31
2022-11-17T22:48:24.614Z,98082.34
2022-11-17T22:50:53.538Z,98090.88
2022-11-17T22:53:21.750Z,98083.50
2022-11-17T22:55:51.579Z,98089.69
2022-11-17T22:58:23.818Z,98084.31
2022-11-17T23:00:54.004Z,98073.94
2022-11-17T23:03:24.983Z,98081.31
2022-11-17T23:05:53.831Z,98079.72
2022-11-17T23:08:22.412Z,98080.72
2022-11-17T23:11:03.870Z,98077.75
2022-11-17T23:13:39.340Z,98070.16
2022-11-17T23:16:08.926Z,98070.38
2022-11-17T23:18:39.431Z,98066.97
2022-11-17T23:21:08.658Z,98068.38
2022-11-17T23:23:38.414Z,98055.59
2022-11-17T23:26:08.004Z,98056.19
2022-11-17T23:28:38.091Z,98056.97
2022-11-17T23:31:08.164Z,98051.25
2022-11-17T23:33:37.661Z,98050.25
2022-11-17T23:36:09.105Z,98043.88
2022-11-17T23:38:37.878Z,98048.44
2022-11-17T23:41:07.566Z,98040.84
2022-11-17T23:43:36.463Z,98042.88
2022-11-17T23:46:06.496Z,98008.59
2022-11-17T23:48:35.047Z,98022.13
2022-11-17T23:51:09.889Z,98028.09
2022-11-17T23:53:39.210Z,98022.53
2022-11-17T23:56:08.887Z,98022.75
2022-11-17T23:58:37.378Z,98023.72
